Time;durP1;ratioP1;P1;durP2;ratioP2;P2;SDS_P1;SDS_P2;PMS_P1;PMS_P2;Temp;Humidity;BMP_temperature;BMP_pressure;BME280_temperature;BME280_humidity;BME280_pressure;Samples;Min_cycle;Max_cycle;Signal;HPM_P1;HPM_P2
2021/11/24 00:00:40;;;;;;;51.83;31.83;;;180.10;2252.80;;;;;;5012737;28;20046;-57
2021/11/24 00:03:06;;;;;;;79.60;48.90;;;180.10;2252.80;;;;;;5012621;28;20087;-57
2021/11/24 00:05:32;;;;;;;70.68;45.05;;;204.80;2252.80;;;;;;5012919;28;20026;-57
2021/11/24 00:07:59;;;;;;;52.95;38.85;;;204.80;2252.80;;;;;;5012550;28;20536;-57
2021/11/24 00:10:29;;;;;;;55.97;37.78;;;204.90;2252.80;;;;;;5012638;28;20029;-57
2021/11/24 00:12:55;;;;;;;52.55;38.45;;;204.90;2252.80;;;;;;5012373;28;20022;-57
2021/11/24 00:15:21;;;;;;;66.10;44.88;;;204.80;2252.80;;;;;;5012629;28;20025;-57
2021/11/24 00:17:46;;;;;;;79.07;49.42;;;204.80;2252.80;;;;;;5012531;28;20026;-58
2021/11/24 00:20:12;;;;;;;59.30;39.10;;;204.80;2252.80;;;;;;5012775;28;20026;-57
2021/11/24 00:22:38;;;;;;;51.08;35.22;;;204.80;2252.80;;;;;;5012567;28;20052;-58
2021/11/24 00:25:05;;;;;;;90.03;56.72;;;204.90;2252.80;;;;;;5012308;28;20049;-57
2021/11/24 00:27:31;;;;;;;65.65;42.10;;;204.90;2252.80;;;;;;5012554;28;20041;-57
2021/11/24 00:29:57;;;;;;;52.30;34.80;;;204.90;2252.80;;;;;;5011980;28;20584;-57
2021/11/24 00:32:23;;;;;;;56.38;33.50;;;204.90;2252.80;;;;;;5012435;28;20041;-57
2021/11/24 00:34:49;;;;;;;66.80;39.55;;;204.80;2252.80;;;;;;5010767;28;20042;-57
2021/11/24 00:37:15;;;;;;;93.05;57.72;;;204.80;2252.80;;;;;;5012266;28;20088;-59
2021/11/24 00:39:41;;;;;;;92.68;63.05;;;204.90;2252.80;;;;;;5012406;28;20087;-57
2021/11/24 00:42:06;;;;;;;74.43;46.03;;;205.00;2252.80;;;;;;5012038;28;20033;-58
2021/11/24 00:44:32;;;;;;;67.90;43.78;;;205.00;2252.80;;;;;;5011954;28;20038;-57
2021/11/24 00:46:58;;;;;;;63.70;42.30;;;204.90;2252.80;;;;;;5011996;28;20022;-57
2021/11/24 00:49:24;;;;;;;60.53;40.95;;;205.00;2252.80;;;;;;5011859;28;20037;-57
2021/11/24 00:51:50;;;;;;;61.88;39.65;;;205.00;2252.80;;;;;;5011922;28;20036;-57
2021/11/24 00:54:16;;;;;;;63.45;41.08;;;205.00;2252.80;;;;;;5011650;28;20030;-58
2021/11/24 00:56:42;;;;;;;116.82;75.13;;;204.90;2252.80;;;;;;5010687;28;20033;-57
2021/11/24 00:59:08;;;;;;;112.57;65.90;;;204.90;2252.80;;;;;;5011399;28;20040;-57
2021/11/24 01:01:34;;;;;;;90.85;53.53;;;204.80;2252.80;;;;;;5011285;28;20136;-57
2021/11/24 01:04:00;;;;;;;113.60;59.30;;;204.80;2252.80;;;;;;5011870;28;20538;-57
2021/11/24 01:06:27;;;;;;;114.15;69.40;;;204.80;2252.80;;;;;;5011746;28;20030;-57
2021/11/24 01:08:53;;;;;;;150.27;96.85;;;180.10;2252.80;;;;;;5011772;28;20026;-56
2021/11/24 01:11:19;;;;;;;188.40;117.07;;;180.10;2252.80;;;;;;5011513;28;20104;-57
2021/11/24 01:13:47;;;;;;;180.82;118.00;;;180.10;2252.80;;;;;;5011373;28;20053;-57
2021/11/24 01:16:13;;;;;;;92.80;55.15;;;180.10;2252.80;;;;;;5011662;28;20037;-56
2021/11/24 01:18:39;;;;;;;155.65;99.70;;;180.10;2252.80;;;;;;5011382;28;20033;-57
2021/11/24 01:21:05;;;;;;;166.38;102.43;;;180.10;2252.80;;;;;;5011398;28;20025;-57
2021/11/24 01:23:31;;;;;;;172.73;98.70;;;180.10;2252.80;;;;;;5011298;28;20499;-57
2021/11/24 01:25:57;;;;;;;170.15;86.95;;;180.10;2252.80;;;;;;5011326;28;20105;-57
2021/11/24 01:28:23;;;;;;;129.70;76.30;;;204.80;2252.80;;;;;;5011002;28;20053;-57
2021/11/24 01:30:49;;;;;;;145.07;88.97;;;204.80;2252.80;;;;;;5011047;28;20075;-57
2021/11/24 01:33:15;;;;;;;155.98;98.25;;;204.80;2252.80;;;;;;5011375;28;20037;-57
2021/11/24 01:35:42;;;;;;;144.90;90.93;;;180.10;2252.80;;;;;;5011341;28;20099;-57
2021/11/24 01:38:07;;;;;;;165.98;105.70;;;179.80;2252.80;;;;;;5011007;28;20033;-57
2021/11/24 01:40:34;;;;;;;156.65;106.95;;;179.70;2252.80;;;;;;5010939;28;20024;-58
2021/11/24 01:43:00;;;;;;;123.70;78.78;;;179.80;2252.80;;;;;;5011006;28;20037;-57
2021/11/24 01:45:26;;;;;;;121.93;73.70;;;179.90;2252.80;;;;;;5010786;28;20484;-57
2021/11/24 01:47:52;;;;;;;118.35;73.93;;;180.00;2252.80;;;;;;5011181;28;20041;-57
2021/11/24 01:50:19;;;;;;;122.18;80.60;;;180.00;2252.80;;;;;;5011206;28;20061;-57
2021/11/24 01:52:46;;;;;;;133.32;85.25;;;179.90;2252.80;;;;;;5010633;28;20030;-57
2021/11/24 01:55:13;;;;;;;138.60;89.32;;;179.90;2252.80;;;;;;5011163;28;20029;-56
2021/11/24 01:57:41;;;;;;;104.70;68.65;;;179.90;2252.80;;;;;;5010859;28;20033;-57
2021/11/24 02:00:09;;;;;;;102.35;65.40;;;179.80;2252.80;;;;;;5010248;28;20026;-56
2021/11/24 02:02:35;;;;;;;133.00;89.35;;;179.70;2252.80;;;;;;5010525;28;20041;-58
2021/11/24 02:05:01;;;;;;;122.22;83.35;;;179.60;2252.80;;;;;;5011000;28;20042;-57
2021/11/24 02:07:26;;;;;;;100.55;64.28;;;179.60;2252.80;;;;;;5010639;28;20113;-57
2021/11/24 02:09:52;;;;;;;131.85;73.22;;;179.50;2252.80;;;;;;5010717;28;20526;-57
2021/11/24 02:12:18;;;;;;;124.90;74.82;;;179.40;2252.80;;;;;;5010481;28;20058;-56
2021/11/24 02:14:44;;;;;;;118.95;77.63;;;179.40;2252.80;;;;;;5010480;28;20026;-57
2021/11/24 02:17:13;;;;;;;132.50;87.70;;;179.30;2252.80;;;;;;5010647;28;20034;-57
2021/11/24 02:19:38;;;;;;;152.88;100.55;;;179.20;2252.80;;;;;;5010737;28;20049;-57
2021/11/24 02:22:04;;;;;;;136.18;86.97;;;179.20;2252.80;;;;;;5010349;28;20030;-57
2021/11/24 02:24:33;;;;;;;131.48;85.03;;;154.50;2252.80;;;;;;5010534;28;20050;-56
2021/11/24 02:27:01;;;;;;;138.55;84.03;;;154.50;2252.80;;;;;;5010419;28;20468;-56
2021/11/24 02:29:27;;;;;;;139.63;88.88;;;154.50;2252.80;;;;;;5010032;28;20148;-56
2021/11/24 02:31:57;;;;;;;139.85;93.80;;;154.40;2252.80;;;;;;5009080;28;21233;-57
2021/11/24 02:34:23;;;;;;;124.57;75.22;;;154.30;2252.80;;;;;;5010754;28;20026;-57
2021/11/24 02:36:49;;;;;;;263.88;145.52;;;154.10;2252.80;;;;;;5010549;28;20025;-57
2021/11/24 02:39:15;;;;;;;135.93;80.32;;;154.00;2252.80;;;;;;5010192;28;20026;-57
2021/11/24 02:41:42;;;;;;;106.55;67.15;;;154.10;2252.80;;;;;;5010393;28;20032;-57
2021/11/24 02:44:17;;;;;;;164.15;87.68;;;153.90;2252.80;;;;;;5009995;28;20507;-56
2021/11/24 02:46:43;;;;;;;132.65;80.40;;;154.00;2252.80;;;;;;5010431;28;20026;-56
2021/11/24 02:49:09;;;;;;;124.30;78.57;;;154.00;2252.80;;;;;;5010466;28;20030;-56
2021/11/24 02:51:35;;;;;;;131.80;77.53;;;154.00;2252.80;;;;;;5010024;28;20033;-56
2021/11/24 02:54:00;;;;;;;124.15;78.57;;;153.90;2252.80;;;;;;5010283;28;20040;-54
2021/11/24 02:56:26;;;;;;;135.63;84.75;;;153.90;2252.80;;;;;;5009999;28;20061;-57
2021/11/24 02:58:52;;;;;;;132.30;80.55;;;153.90;2252.80;;;;;;5009997;28;20026;-56
2021/11/24 03:01:18;;;;;;;142.57;84.53;;;153.80;2252.80;;;;;;5009676;28;20089;-56
2021/11/24 03:03:44;;;;;;;125.63;71.75;;;153.80;2252.80;;;;;;5009861;28;20038;-56
2021/11/24 03:06:09;;;;;;;100.85;62.30;;;153.80;2252.80;;;;;;5010427;28;20053;-57
2021/11/24 03:08:35;;;;;;;81.05;52.47;;;153.70;2252.80;;;;;;5009908;28;20018;-56
2021/11/24 03:11:01;;;;;;;80.45;51.25;;;153.70;2252.80;;;;;;5010082;28;20026;-56
2021/11/24 03:13:26;;;;;;;79.53;50.28;;;153.70;2252.80;;;;;;5011238;28;20080;-55
2021/11/24 03:15:52;;;;;;;80.47;49.92;;;153.60;2252.80;;;;;;5013569;28;20026;-57
2021/11/24 03:18:18;;;;;;;81.95;56.15;;;153.80;2252.80;;;;;;5013666;28;20022;-56
2021/11/24 03:20:44;;;;;;;78.30;48.75;;;153.70;2252.80;;;;;;5013788;28;20037;-57
2021/11/24 03:23:10;;;;;;;74.47;47.13;;;153.70;2252.80;;;;;;5013987;28;20030;-57
2021/11/24 03:25:36;;;;;;;73.13;46.80;;;128.90;2252.80;;;;;;5013558;28;20395;-56
2021/11/24 03:28:02;;;;;;;71.57;42.35;;;128.90;2252.80;;;;;;5013564;28;20480;-57
2021/11/24 03:30:29;;;;;;;71.25;45.28;;;153.60;2252.80;;;;;;5013077;28;20026;-57
2021/11/24 03:32:56;;;;;;;81.38;46.80;;;128.90;2252.80;;;;;;5013320;28;20076;-56
2021/11/24 03:35:24;;;;;;;79.13;45.67;;;153.60;2252.80;;;;;;5013563;28;20380;-56
2021/11/24 03:37:52;;;;;;;111.00;65.07;;;128.80;2252.80;;;;;;5013530;28;20030;-57
2021/11/24 03:40:23;;;;;;;89.50;55.90;;;128.80;2252.80;;;;;;5013328;28;20037;-56
2021/11/24 03:42:51;;;;;;;74.82;46.33;;;128.60;2252.80;;;;;;5013371;28;20442;-56
2021/11/24 03:45:20;;;;;;;87.57;55.42;;;128.70;2252.80;;;;;;5013043;28;20062;-57
2021/11/24 03:47:47;;;;;;;58.80;38.75;;;128.50;2252.80;;;;;;5013237;28;20032;-57
2021/11/24 03:50:14;;;;;;;68.60;40.38;;;128.50;2252.80;;;;;;5013196;28;20030;-57
2021/11/24 03:52:39;;;;;;;59.67;38.25;;;128.60;2252.80;;;;;;5013273;28;20373;-56
2021/11/24 03:55:07;;;;;;;58.10;37.25;;;128.80;2252.80;;;;;;5012894;28;20263;-56
2021/11/24 03:57:33;;;;;;;65.78;38.03;;;128.80;2252.80;;;;;;5012995;28;20084;-56
2021/11/24 03:59:59;;;;;;;60.47;38.58;;;128.90;2252.80;;;;;;5012764;28;20053;-56
2021/11/24 04:02:25;;;;;;;62.75;39.20;;;128.90;2252.80;;;;;;5012636;28;20058;-57
2021/11/24 04:04:51;;;;;;;73.63;48.58;;;128.90;2252.80;;;;;;5012728;28;20073;-54
2021/11/24 04:07:17;;;;;;;79.65;46.30;;;128.80;2252.80;;;;;;5012787;28;20030;-55
2021/11/24 04:09:43;;;;;;;72.57;48.08;;;128.90;2252.80;;;;;;5013026;28;20104;-56
2021/11/24 04:12:09;;;;;;;81.38;54.83;;;128.80;2252.80;;;;;;5012534;28;20045;-56
2021/11/24 04:14:34;;;;;;;76.50;45.22;;;128.70;2252.80;;;;;;5012367;28;20038;-57
2021/11/24 04:17:00;;;;;;;60.50;38.30;;;128.70;2252.80;;;;;;5012863;28;20026;-57
2021/11/24 04:19:26;;;;;;;61.65;36.83;;;128.40;2252.80;;;;;;5012666;28;20030;-56
2021/11/24 04:21:52;;;;;;;60.58;36.83;;;128.40;2252.80;;;;;;5012570;28;20022;-57
2021/11/24 04:24:18;;;;;;;86.00;48.92;;;128.30;2252.80;;;;;;5011499;28;20038;-57
2021/11/24 04:26:44;;;;;;;69.30;39.78;;;128.30;2252.80;;;;;;5012006;28;20018;-57
2021/11/24 04:29:10;;;;;;;70.78;37.80;;;128.20;2252.80;;;;;;5012612;28;20037;-57
2021/11/24 04:31:36;;;;;;;69.70;44.63;;;128.00;2252.80;;;;;;5012182;28;20354;-56
2021/11/24 04:34:01;;;;;;;95.85;52.80;;;103.30;2227.20;;;;;;5012536;28;20030;-56
2021/11/24 04:36:27;;;;;;;105.75;56.63;;;103.30;2227.20;;;;;;5012239;28;20044;-57
2021/11/24 04:38:53;;;;;;;89.88;55.88;;;103.30;2227.20;;;;;;5012429;28;20029;-56
2021/11/24 04:41:19;;;;;;;75.78;48.10;;;103.30;2227.20;;;;;;5012254;28;20106;-57
2021/11/24 04:43:47;;;;;;;101.22;57.00;;;128.10;2252.80;;;;;;5011989;28;20045;-57
2021/11/24 04:46:15;;;;;;;73.25;43.15;;;128.00;2252.80;;;;;;5011964;28;20407;-57
2021/11/24 04:48:41;;;;;;;77.40;48.42;;;128.00;2252.80;;;;;;5011982;28;20073;-56
2021/11/24 04:51:07;;;;;;;75.85;45.17;;;128.00;2252.80;;;;;;5011861;28;20053;-57
2021/11/24 04:53:33;;;;;;;69.72;39.45;;;128.10;2252.80;;;;;;5012081;28;20018;-57
2021/11/24 04:55:59;;;;;;;104.05;67.10;;;128.00;2252.80;;;;;;5011991;28;20033;-57
2021/11/24 04:58:25;;;;;;;95.50;60.50;;;103.30;2227.20;;;;;;5011820;28;20029;-57
2021/11/24 05:00:51;;;;;;;79.05;48.38;;;128.00;2252.80;;;;;;5011458;28;20050;-56
2021/11/24 05:03:16;;;;;;;64.78;40.53;;;103.30;2227.20;;;;;;5011478;28;20072;-57
2021/11/24 05:05:42;;;;;;;68.43;43.13;;;103.20;2227.20;;;;;;5011981;28;20041;-57
2021/11/24 05:08:08;;;;;;;67.03;41.10;;;103.20;2227.20;;;;;;5011610;28;20488;-57
2021/11/24 05:10:34;;;;;;;60.42;35.22;;;103.20;2227.20;;;;;;5011501;28;20121;-57
2021/11/24 05:13:00;;;;;;;50.40;33.58;;;103.20;2227.20;;;;;;5011581;28;20111;-57
2021/11/24 05:15:32;;;;;;;53.20;31.85;;;103.20;2227.20;;;;;;5011271;28;20030;-57
2021/11/24 05:18:07;;;;;;;51.97;32.47;;;103.20;2227.20;;;;;;5011557;28;20388;-56
2021/11/24 05:20:34;;;;;;;48.58;32.60;;;103.10;2227.20;;;;;;5011551;28;20105;-56
2021/11/24 05:23:04;;;;;;;61.15;37.85;;;103.20;2227.20;;;;;;5011472;28;20109;-57
2021/11/24 05:25:30;;;;;;;59.85;36.05;;;103.30;2227.20;;;;;;5011466;28;20395;-57
2021/11/24 05:27:56;;;;;;;55.38;35.38;;;103.00;2227.20;;;;;;5011158;28;20029;-57
2021/11/24 05:30:23;;;;;;;44.78;29.00;;;102.70;2227.20;;;;;;5011145;28;20534;-57
2021/11/24 05:32:50;;;;;;;59.33;33.17;;;102.80;2227.20;;;;;;5011524;28;20076;-57
2021/11/24 05:35:21;;;;;;;51.83;31.63;;;102.80;2227.20;;;;;;5010887;28;20049;-58
2021/11/24 05:37:50;;;;;;;56.42;32.13;;;102.90;2227.20;;;;;;5010747;28;20076;-57
2021/11/24 05:40:16;;;;;;;57.47;36.90;;;103.00;2227.20;;;;;;5010928;28;20473;-57
2021/11/24 05:42:51;;;;;;;59.42;38.00;;;102.90;2227.20;;;;;;5011221;28;20033;-57
2021/11/24 05:48:03;;;;;;;59.08;34.22;;;103.00;2227.20;;;;;;5011092;28;20084;-57
2021/11/24 05:50:30;;;;;;;64.40;36.47;;;103.00;2227.20;;;;;;5010800;28;20428;-57
2021/11/24 05:52:56;;;;;;;60.95;37.72;;;103.10;2227.20;;;;;;5010749;28;20026;-56
2021/11/24 05:55:23;;;;;;;127.72;72.93;;;103.30;2227.20;;;;;;5010788;28;20033;-57
2021/11/24 05:57:50;;;;;;;73.80;41.95;;;103.20;2227.20;;;;;;5010988;28;20431;-57
2021/11/24 06:00:17;;;;;;;65.72;41.00;;;128.00;2252.80;;;;;;5010318;28;20033;-56
2021/11/24 06:02:43;;;;;;;88.28;55.05;;;128.00;2252.80;;;;;;5010861;28;20439;-57
2021/11/24 06:05:10;;;;;;;89.15;52.72;;;128.10;2252.80;;;;;;5010749;28;20094;-56
2021/11/24 06:07:36;;;;;;;133.93;75.45;;;128.20;2252.80;;;;;;5010571;28;20068;-57
2021/11/24 06:10:04;;;;;;;102.47;62.97;;;128.20;2252.80;;;;;;5010545;28;20469;-57
2021/11/24 06:12:29;;;;;;;122.80;68.45;;;128.20;2252.80;;;;;;5010586;28;20041;-57
2021/11/24 06:14:55;;;;;;;56.78;33.30;;;128.40;2252.80;;;;;;5010226;28;20037;-57
2021/11/24 06:17:21;;;;;;;53.10;32.95;;;128.30;2252.80;;;;;;5010575;28;20029;-57
2021/11/24 06:19:46;;;;;;;59.40;36.83;;;128.40;2252.80;;;;;;5010312;28;20424;-57
2021/11/24 06:22:12;;;;;;;84.85;50.83;;;128.50;2252.80;;;;;;5010553;28;20057;-57
2021/11/24 06:24:38;;;;;;;171.63;110.00;;;128.60;2252.80;;;;;;5009116;28;20061;-57
2021/11/24 06:27:04;;;;;;;225.65;140.55;;;128.60;2252.80;;;;;;5010524;28;20030;-58
2021/11/24 06:29:30;;;;;;;69.00;41.35;;;128.70;2252.80;;;;;;5010599;28;20034;-62
2021/11/24 06:31:56;;;;;;;135.48;79.45;;;128.80;2252.80;;;;;;5010149;28;20103;-64
2021/11/24 06:34:22;;;;;;;213.68;136.07;;;128.60;2252.80;;;;;;5010291;28;20018;-61
2021/11/24 06:36:48;;;;;;;265.27;165.77;;;128.40;2252.80;;;;;;5010039;28;20088;-63
2021/11/24 06:39:14;;;;;;;246.60;151.77;;;128.40;2252.80;;;;;;5009447;28;20034;-60
2021/11/24 06:41:40;;;;;;;265.20;157.20;;;128.40;2252.80;;;;;;5010420;28;20180;-61
2021/11/24 06:44:05;;;;;;;246.93;156.48;;;128.40;2252.80;;;;;;5012260;28;20034;-60
2021/11/24 06:46:33;;;;;;;183.43;119.45;;;128.20;2252.80;;;;;;5018052;28;20037;-61
2021/11/24 06:48:59;;;;;;;177.75;118.20;;;128.30;2252.80;;;;;;5030987;28;20040;-62
2021/11/24 06:51:25;;;;;;;168.77;115.60;;;128.60;2252.80;;;;;;5032274;28;20079;-62
2021/11/24 06:53:51;;;;;;;184.40;125.15;;;128.40;2252.80;;;;;;5023176;28;20068;-62
2021/11/24 06:56:17;;;;;;;170.35;113.78;;;128.90;2252.80;;;;;;5022773;28;20495;-62
2021/11/24 06:58:42;;;;;;;192.10;120.68;;;128.70;2252.80;;;;;;5021480;28;20030;-62
2021/11/24 07:01:08;;;;;;;194.15;122.28;;;128.90;2252.80;;;;;;5022991;28;20045;-61
2021/11/24 07:03:34;;;;;;;184.05;116.40;;;153.70;2252.80;;;;;;5031507;28;20120;-60
2021/11/24 07:06:00;;;;;;;126.63;84.53;;;153.80;2252.80;;;;;;5033110;28;20033;-62
2021/11/24 07:08:25;;;;;;;129.98;82.97;;;154.00;2252.80;;;;;;5033503;28;20034;-63
2021/11/24 07:10:51;;;;;;;151.10;97.32;;;154.10;2252.80;;;;;;5033685;28;20083;-60
2021/11/24 07:13:17;;;;;;;150.57;93.93;;;154.20;2252.80;;;;;;5033389;28;20064;-62
2021/11/24 07:15:43;;;;;;;146.02;93.65;;;154.40;2252.80;;;;;;5033653;28;20472;-62
2021/11/24 07:18:09;;;;;;;166.38;105.63;;;154.30;2252.80;;;;;;5033442;28;20036;-60
2021/11/24 07:20:35;;;;;;;246.85;167.65;;;154.30;2252.80;;;;;;5033565;28;20124;-61
2021/11/24 07:23:00;;;;;;;233.82;150.75;;;154.00;2252.80;;;;;;5033439;28;20112;-60
2021/11/24 07:25:28;;;;;;;207.70;129.48;;;154.30;2252.80;;;;;;5033094;28;20041;-61
2021/11/24 07:27:54;;;;;;;220.85;142.85;;;154.50;2252.80;;;;;;5033609;28;20033;-62
2021/11/24 07:30:21;;;;;;;205.55;133.45;;;154.50;2252.80;;;;;;5033423;28;20472;-62
2021/11/24 07:32:47;;;;;;;201.25;129.13;;;154.30;2252.80;;;;;;5033053;28;20022;-62
2021/11/24 07:35:14;;;;;;;207.00;130.10;;;179.30;2252.80;;;;;;5033362;28;20037;-62
2021/11/24 07:37:39;;;;;;;241.32;165.10;;;179.30;2252.80;;;;;;5033460;28;20484;-62
2021/11/24 07:40:08;;;;;;;215.93;135.65;;;179.80;2252.80;;;;;;5033063;28;20131;-61
2021/11/24 07:42:34;;;;;;;190.60;125.80;;;180.00;2252.80;;;;;;5033190;28;20598;-62
2021/11/24 07:44:59;;;;;;;229.23;151.55;;;179.50;2252.80;;;;;;5033151;28;20322;-62
2021/11/24 07:47:25;;;;;;;194.38;129.10;;;179.80;2252.80;;;;;;5032856;28;20341;-62
2021/11/24 07:49:51;;;;;;;204.75;133.68;;;179.50;2252.80;;;;;;5033133;28;20108;-60
2021/11/24 07:52:17;;;;;;;202.23;138.07;;;180.00;2252.80;;;;;;5032835;28;20482;-62
2021/11/24 07:54:44;;;;;;;273.80;179.00;;;179.70;2252.80;;;;;;5033040;28;20542;-62
2021/11/24 07:57:10;;;;;;;219.27;144.80;;;180.00;2252.80;;;;;;5032964;28;20018;-60
2021/11/24 07:59:37;;;;;;;193.35;122.78;;;179.60;2252.80;;;;;;5032278;28;20112;-62
2021/11/24 08:02:03;;;;;;;243.70;145.23;;;179.30;2252.80;;;;;;5032583;28;20485;-62
2021/11/24 08:04:29;;;;;;;217.88;135.43;;;179.50;2252.80;;;;;;5032587;28;20499;-63
2021/11/24 08:07:00;;;;;;;213.88;128.50;;;179.80;2252.80;;;;;;5032542;28;20124;-63
2021/11/24 08:09:29;;;;;;;212.82;133.20;;;179.90;2252.80;;;;;;5032447;28;20033;-62
2021/11/24 08:11:55;;;;;;;246.88;145.98;;;180.10;2252.80;;;;;;5032815;28;20025;-63
2021/11/24 08:14:21;;;;;;;222.90;140.75;;;179.70;2252.80;;;;;;5032722;28;20026;-62
2021/11/24 08:16:47;;;;;;;240.70;140.57;;;179.70;2252.80;;;;;;5032332;28;20033;-60
2021/11/24 08:19:13;;;;;;;223.98;137.20;;;179.70;2252.80;;;;;;5032631;28;20507;-64
2021/11/24 08:21:39;;;;;;;222.25;147.93;;;179.50;2252.80;;;;;;5032259;28;20021;-61
2021/11/24 08:24:05;;;;;;;247.57;147.23;;;179.60;2252.80;;;;;;5032089;28;20542;-62
2021/11/24 08:26:31;;;;;;;235.18;147.23;;;179.60;2252.80;;;;;;5032273;28;20025;-62
2021/11/24 08:28:56;;;;;;;250.23;154.38;;;180.00;2252.80;;;;;;5032032;28;20061;-63
2021/11/24 08:31:23;;;;;;;238.32;149.55;;;205.20;2252.80;;;;;;5032221;28;20030;-61
2021/11/24 08:33:49;;;;;;;218.63;141.25;;;230.80;2252.80;;;;;;5031928;28;20479;-62
2021/11/24 08:36:15;;;;;;;223.13;153.27;;;256.50;2252.80;;;;;;5031914;28;20025;-62
2021/11/24 08:38:43;;;;;;;205.90;144.10;;;281.90;2278.40;;;;;;5032136;28;20079;-63
2021/11/24 08:41:11;;;;;;;208.65;144.35;;;282.20;2278.40;;;;;;5031731;28;20091;-64
2021/11/24 08:43:38;;;;;;;239.98;144.20;;;282.30;2278.40;;;;;;5031622;28;20044;-64
2021/11/24 08:46:04;;;;;;;183.48;121.30;;;256.40;2252.80;;;;;;5032074;28;20465;-65
2021/11/24 08:48:30;;;;;;;151.10;103.60;;;281.90;2278.40;;;;;;5031884;28;20043;-60
2021/11/24 08:50:56;;;;;;;136.32;94.03;;;281.80;2278.40;;;;;;5031630;28;20036;-64
2021/11/24 08:53:22;;;;;;;159.02;108.50;;;282.30;2278.40;;;;;;5031838;28;20025;-60
2021/11/24 08:55:49;;;;;;;139.15;103.53;;;307.60;2304.00;;;;;;5031493;28;20028;-64
2021/11/24 08:58:14;;;;;;;152.10;108.65;;;307.40;2304.00;;;;;;5063675;28;20460;-62
2021/11/24 09:00:40;;;;;;;165.55;116.00;;;308.00;2304.00;;;;;;5031407;28;20085;-64
2021/11/24 09:03:08;;;;;;;168.23;108.68;;;308.10;2304.00;;;;;;5031436;28;20100;-62
2021/11/24 09:05:34;;;;;;;190.63;133.50;;;332.90;2329.60;;;;;;5031572;28;20036;-62
2021/11/24 09:07:59;;;;;;;144.93;107.68;;;308.10;2304.00;;;;;;5031668;28;20033;-64
2021/11/24 09:10:29;;;;;;;152.65;112.88;;;332.90;2329.60;;;;;;5030813;28;20017;-64
2021/11/24 09:12:55;;;;;;;170.45;129.30;;;307.60;2304.00;;;;;;5031148;28;20022;-62
2021/11/24 09:15:21;;;;;;;172.93;129.80;;;281.80;2278.40;;;;;;5031302;28;20476;-64
2021/11/24 09:17:47;;;;;;;144.48;109.50;;;256.40;2252.80;;;;;;5031155;28;20529;-64
2021/11/24 09:20:13;;;;;;;146.55;103.25;;;281.60;2278.40;;;;;;5031638;28;20028;-62
2021/11/24 09:22:42;;;;;;;137.07;101.40;;;281.70;2278.40;;;;;;5031049;28;20053;-63
2021/11/24 09:25:12;;;;;;;146.85;104.78;;;256.80;2252.80;;;;;;5030887;28;20048;-62
2021/11/24 09:27:47;;;;;;;130.10;90.28;;;256.20;2252.80;;;;;;5031089;28;20030;-62
2021/11/24 09:30:14;;;;;;;133.82;94.72;;;256.20;2252.80;;;;;;5031377;28;20047;-63
2021/11/24 09:32:41;;;;;;;125.20;87.53;;;281.90;2278.40;;;;;;5031198;28;20029;-63
2021/11/24 09:35:08;;;;;;;110.90;83.00;;;282.00;2278.40;;;;;;5030823;28;20037;-63
2021/11/24 09:37:34;;;;;;;119.10;78.53;;;282.00;2278.40;;;;;;5031085;28;20037;-63
2021/11/24 09:40:00;;;;;;;124.75;88.00;;;256.20;2252.80;;;;;;5030927;28;20021;-62
2021/11/24 09:42:28;;;;;;;127.15;83.85;;;231.20;2252.80;;;;;;5030761;28;20079;-63
2021/11/24 09:44:56;;;;;;;114.60;77.88;;;231.00;2252.80;;;;;;5030747;28;20502;-63
2021/11/24 09:47:24;;;;;;;142.80;92.65;;;230.70;2252.80;;;;;;5030575;28;20030;-61
2021/11/24 09:49:54;;;;;;;113.07;78.18;;;231.10;2252.80;;;;;;5030702;28;20036;-62
2021/11/24 09:52:20;;;;;;;94.47;61.22;;;230.50;2252.80;;;;;;5030612;28;20518;-62
2021/11/24 09:54:49;;;;;;;124.25;79.07;;;205.10;2252.80;;;;;;5030325;28;20033;-62
2021/11/24 09:57:24;;;;;;;174.63;107.50;;;204.90;2252.80;;;;;;5030230;28;20029;-63
2021/11/24 09:59:50;;;;;;;118.07;76.70;;;205.00;2252.80;;;;;;5030544;28;20041;-61
2021/11/24 10:02:18;;;;;;;112.15;66.55;;;205.50;2252.80;;;;;;5029975;28;20050;-62
2021/11/24 10:04:45;;;;;;;151.73;94.15;;;205.70;2252.80;;;;;;5030321;28;20030;-62
2021/11/24 10:07:13;;;;;;;114.07;73.28;;;230.40;2252.80;;;;;;5030344;28;20021;-63
2021/11/24 10:09:40;;;;;;;114.43;73.82;;;205.60;2252.80;;;;;;5030053;28;20583;-61
2021/11/24 10:12:07;;;;;;;109.18;69.53;;;205.40;2252.80;;;;;;5030311;28;20555;-62
2021/11/24 10:14:33;;;;;;;144.40;85.22;;;205.20;2252.80;;;;;;5030469;28;20036;-63
2021/11/24 10:17:14;;;;;;;129.82;78.30;;;205.20;2252.80;;;;;;5029945;28;20521;-62
2021/11/24 10:19:56;;;;;;;145.55;86.95;;;205.10;2252.80;;;;;;5030361;28;20044;-63
2021/11/24 10:22:22;;;;;;;107.97;68.82;;;204.90;2252.80;;;;;;5029508;28;20053;-62
2021/11/24 10:24:53;;;;;;;102.85;70.32;;;205.00;2252.80;;;;;;5029588;28;20080;-63
2021/11/24 10:27:36;;;;;;;113.97;67.22;;;205.20;2252.80;;;;;;5029873;28;20040;-64
2021/11/24 10:30:03;;;;;;;102.38;64.85;;;205.30;2252.80;;;;;;5030404;28;20034;-62
2021/11/24 10:32:29;;;;;;;86.57;49.78;;;205.60;2252.80;;;;;;5029735;28;20410;-62
2021/11/24 10:34:56;;;;;;;90.82;59.50;;;205.70;2252.80;;;;;;5030134;28;20105;-63
2021/11/24 10:37:22;;;;;;;73.65;45.75;;;230.40;2252.80;;;;;;5030056;28;20033;-63
2021/11/24 10:39:54;;;;;;;54.13;36.25;;;230.40;2252.80;;;;;;5029903;28;20025;-62
2021/11/24 10:42:34;;;;;;;85.57;52.47;;;230.60;2252.80;;;;;;5029912;28;20050;-61
2021/11/24 10:45:07;;;;;;;79.93;51.38;;;230.50;2252.80;;;;;;5029766;28;20048;-63
2021/11/24 10:47:34;;;;;;;115.07;66.80;;;230.70;2252.80;;;;;;5029913;28;20018;-62
2021/11/24 10:50:04;;;;;;;61.65;40.72;;;230.70;2252.80;;;;;;5029931;28;20026;-61
2021/11/24 10:52:36;;;;;;;70.07;38.47;;;230.70;2252.80;;;;;;5029966;28;20030;-63
2021/11/24 10:55:11;;;;;;;78.00;48.78;;;230.60;2252.80;;;;;;5029892;28;20029;-64
2021/11/24 10:57:39;;;;;;;40.58;27.23;;;230.60;2252.80;;;;;;5029578;28;20112;-63
2021/11/24 11:00:10;;;;;;;59.03;35.95;;;230.50;2252.80;;;;;;5029748;28;20037;-62
2021/11/24 11:02:38;;;;;;;39.10;25.58;;;230.70;2252.80;;;;;;5029448;28;20068;-62
2021/11/24 11:05:09;;;;;;;67.00;42.00;;;230.70;2252.80;;;;;;5029657;28;20053;-63
2021/11/24 11:07:41;;;;;;;92.20;54.47;;;230.70;2252.80;;;;;;5029953;28;20028;-63
2021/11/24 11:10:08;;;;;;;62.53;38.08;;;230.70;2252.80;;;;;;5029451;28;20033;-62
2021/11/24 11:12:35;;;;;;;64.72;36.78;;;230.70;2252.80;;;;;;5029599;28;20061;-63
2021/11/24 11:15:14;;;;;;;51.38;30.48;;;230.70;2252.80;;;;;;5029624;28;20025;-63
2021/11/24 11:17:52;;;;;;;33.42;18.08;;;231.00;2252.80;;;;;;5029901;28;20021;-64
2021/11/24 11:20:18;;;;;;;45.38;27.92;;;230.80;2252.80;;;;;;5029485;28;20440;-63
2021/11/24 11:22:44;;;;;;;39.53;24.15;;;230.90;2252.80;;;;;;5029674;28;20676;-62
2021/11/24 11:25:11;;;;;;;44.85;29.60;;;230.90;2252.80;;;;;;5029656;28;20041;-62
2021/11/24 11:27:39;;;;;;;49.80;31.73;;;231.00;2252.80;;;;;;5029423;28;20021;-61
2021/11/24 11:30:06;;;;;;;45.05;28.23;;;231.00;2252.80;;;;;;5029154;28;20048;-63
2021/11/24 11:32:31;;;;;;;46.92;27.17;;;230.90;2252.80;;;;;;5029463;28;20032;-63
2021/11/24 11:34:57;;;;;;;36.13;22.10;;;231.00;2252.80;;;;;;5031454;28;20025;-62
2021/11/24 11:37:23;;;;;;;39.60;25.95;;;231.00;2252.80;;;;;;5033094;28;20068;-64
2021/11/24 11:39:50;;;;;;;45.67;27.33;;;231.10;2252.80;;;;;;5032875;28;20029;-63
2021/11/24 11:42:18;;;;;;;33.92;20.60;;;231.00;2252.80;;;;;;5033061;28;20029;-63
2021/11/24 11:44:44;;;;;;;33.15;23.10;;;231.00;2252.80;;;;;;5033051;28;20124;-63
2021/11/24 11:47:09;;;;;;;41.55;25.15;;;256.00;2252.80;;;;;;5032925;28;20017;-63
2021/11/24 11:49:38;;;;;;;33.38;20.48;;;256.00;2252.80;;;;;;5032886;28;20033;-62
2021/11/24 11:52:10;;;;;;;44.72;25.83;;;256.00;2252.80;;;;;;5032615;28;20095;-64